Time;durP1;ratioP1;P1;durP2;ratioP2;P2;SDS_P1;SDS_P2;PMS_P1;PMS_P2;Temp;Humidity;BMP_temperature;BMP_pressure;BME280_temperature;BME280_humidity;BME280_pressure;Samples;Min_cycle;Max_cycle;Signal;HPM_P1;HPM_P2
2023/01/03 00:00:42;;;;;;;1.60;0.70;;;;;;;9.26;93.14;153737.81;4986109;28;20513;-85
2023/01/03 00:03:29;;;;;;;1.10;0.70;;;;;;;9.27;94.66;153740.38;4997068;28;20499;-84
2023/01/03 00:06:15;;;;;;;1.30;1.10;;;;;;;9.25;94.13;153735.22;4994553;28;20528;-84
2023/01/03 00:09:04;;;;;;;1.20;1.00;;;;;;;9.22;95.70;153727.44;4989512;28;20468;-85
2023/01/03 00:14:53;;;;;;;1.73;0.70;;;;;;;9.21;94.75;153723.59;4992938;28;20542;-86
2023/01/03 00:17:38;;;;;;;1.87;1.20;;;;;;;9.19;93.19;153719.69;4989355;28;20716;-85
2023/01/03 00:20:25;;;;;;;2.00;0.60;;;;;;;9.16;93.60;153711.91;4989260;28;20442;-84
2023/01/03 00:23:10;;;;;;;1.37;0.90;;;;;;;9.13;91.78;153705.44;4996886;28;20477;-84
2023/01/03 00:25:55;;;;;;;0.80;0.60;;;;;;;9.14;94.93;153706.75;4994201;28;20976;-84
2023/01/03 00:28:40;;;;;;;1.00;0.70;;;;;;;9.13;92.17;153704.19;4993308;28;20450;-84
2023/01/03 00:31:26;;;;;;;1.10;0.67;;;;;;;9.11;92.34;153698.97;5001492;28;20588;-84
2023/01/03 00:34:11;;;;;;;1.77;1.20;;;;;;;9.11;90.58;153698.97;4994008;28;20467;-84
2023/01/03 00:36:58;;;;;;;0.90;0.60;;;;;;;9.19;90.12;153720.97;4996622;28;20458;-84
2023/01/03 00:39:43;;;;;;;1.20;0.60;;;;;;;9.11;89.86;153698.97;4991488;28;20516;-85
2023/01/03 00:42:29;;;;;;;2.13;0.80;;;;;;;9.10;91.17;153696.41;5000259;28;20442;-84
2023/01/03 00:45:14;;;;;;;1.63;0.90;;;;;;;9.10;91.32;153696.41;4995362;28;20432;-84
2023/01/03 00:47:59;;;;;;;1.20;0.60;;;;;;;9.05;91.37;153683.50;4978518;28;20527;-83
2023/01/03 00:50:45;;;;;;;1.17;0.70;;;;;;;9.03;91.91;153678.28;4998405;28;20942;-84
2023/01/03 00:53:31;;;;;;;1.43;1.00;;;;;;;9.04;93.19;153682.19;4987920;28;20496;-83
2023/01/03 00:56:18;;;;;;;2.43;1.00;;;;;;;9.04;92.59;153680.88;4993446;28;20582;-83
2023/01/03 00:59:04;;;;;;;1.43;0.83;;;;;;;8.99;92.25;153669.25;5000098;28;20600;-83
2023/01/03 01:01:51;;;;;;;2.17;1.17;;;;;;;8.98;91.91;153665.34;5012182;28;20416;-83
2023/01/03 01:04:36;;;;;;;1.80;1.07;;;;;;;8.96;92.28;153660.19;4989208;28;20446;-85
2023/01/03 01:07:22;;;;;;;2.80;1.00;;;;;;;8.95;93.46;153657.59;5006594;28;20457;-84
2023/01/03 01:10:09;;;;;;;2.43;1.30;;;;;;;8.94;92.03;153656.34;5010287;28;20417;-84
2023/01/03 01:12:55;;;;;;;1.87;1.07;;;;;;;8.93;92.85;153652.44;5005565;28;20530;-84
2023/01/03 01:15:40;;;;;;;1.67;1.27;;;;;;;8.94;93.84;153656.34;4987400;28;20790;-84
2023/01/03 01:18:26;;;;;;;1.57;1.07;;;;;;;8.93;95.37;153652.44;5002362;28;20796;-84
2023/01/03 01:21:16;;;;;;;1.90;1.00;;;;;;;8.88;93.27;153640.81;5010375;28;20508;-85
2023/01/03 01:24:01;;;;;;;1.30;0.83;;;;;;;8.88;91.75;153640.81;4989960;28;20462;-85
2023/01/03 01:26:48;;;;;;;1.87;1.17;;;;;;;8.90;91.13;153644.66;4997752;28;20453;-85
2023/01/03 01:29:33;;;;;;;1.13;0.70;;;;;;;8.91;91.85;153647.28;4973679;28;20431;-85
2023/01/03 01:32:18;;;;;;;1.50;1.20;;;;;;;8.89;93.01;153643.41;4998312;28;20801;-85
2023/01/03 01:35:04;;;;;;;1.57;1.03;;;;;;;8.85;92.73;153633.03;4984392;28;20872;-85
2023/01/03 01:37:50;;;;;;;2.40;1.40;;;;;;;8.82;91.70;153623.97;4991046;28;20555;-85
2023/01/03 01:40:35;;;;;;;1.23;0.80;;;;;;;8.78;93.04;153613.66;5002347;28;20777;-85
2023/01/03 01:46:29;;;;;;;2.00;1.33;;;;;;;8.72;91.89;153599.44;5010624;28;20488;-85
2023/01/03 01:49:19;;;;;;;2.80;1.33;;;;;;;8.69;92.89;153591.66;4987262;28;20447;-85
2023/01/03 01:52:05;;;;;;;1.93;1.37;;;;;;;8.66;93.37;153582.66;4992388;28;20808;-84
2023/01/03 01:54:51;;;;;;;2.47;1.40;;;;;;;8.65;92.77;153580.03;4993553;28;20529;-85
2023/01/03 01:57:37;;;;;;;3.53;1.50;;;;;;;8.63;93.60;153576.13;4998539;28;20439;-84
2023/01/03 02:00:24;;;;;;;1.70;1.13;;;;;;;8.62;92.89;153572.28;4994519;28;20493;-84
2023/01/03 02:03:09;;;;;;;1.40;0.97;;;;;;;8.63;93.36;153574.88;4997200;28;21090;-85
2023/01/03 02:05:56;;;;;;;1.50;1.03;;;;;;;8.65;92.52;153580.03;5012006;28;20607;-84
2023/01/03 02:08:41;;;;;;;1.53;1.00;;;;;;;8.64;92.39;153577.44;4990120;28;20566;-84
2023/01/03 02:11:33;;;;;;;1.30;0.73;;;;;;;8.60;92.87;153568.44;4994120;28;20449;-84
2023/01/03 02:14:32;;;;;;;1.30;1.17;;;;;;;8.58;92.68;153563.22;4990121;28;20449;-84
2023/01/03 02:17:37;;;;;;;1.03;0.80;;;;;;;8.57;93.95;153560.66;4990132;28;20533;-84
2023/01/03 02:20:31;;;;;;;1.30;1.10;;;;;;;8.57;93.72;153561.97;5000265;28;20452;-84
2023/01/03 02:23:39;;;;;;;0.90;0.80;;;;;;;8.52;93.45;153549.00;4974453;28;20603;-84
2023/01/03 02:26:44;;;;;;;1.53;1.00;;;;;;;8.50;94.63;153543.84;5005147;28;20765;-84
2023/01/03 02:30:06;;;;;;;1.30;0.90;;;;;;;8.44;94.25;153527.06;5002999;28;20663;-84
2023/01/03 02:33:00;;;;;;;1.37;0.93;;;;;;;8.42;95.54;153521.84;4972962;28;20438;-84
2023/01/03 02:35:53;;;;;;;1.80;0.70;;;;;;;8.39;94.30;153515.38;4992221;28;20438;-84
2023/01/03 02:38:47;;;;;;;1.20;0.80;;;;;;;8.36;94.31;153507.69;4998545;28;20484;-84
2023/01/03 02:41:40;;;;;;;1.67;1.30;;;;;;;8.35;95.00;153505.06;5006451;28;20445;-84
2023/01/03 02:44:28;;;;;;;2.87;0.90;;;;;;;8.31;94.33;153494.72;5008983;28;20464;-84
2023/01/03 02:47:15;;;;;;;2.47;1.00;;;;;;;8.29;94.11;153488.25;4997841;28;20458;-84
2023/01/03 02:50:04;;;;;;;1.10;0.70;;;;;;;8.26;94.51;153481.75;4987310;28;20904;-84
2023/01/03 02:52:51;;;;;;;1.43;0.80;;;;;;;8.23;94.77;153474.03;4998534;28;20973;-84
2023/01/03 02:55:38;;;;;;;1.57;0.80;;;;;;;8.18;95.07;153459.81;4998132;28;20448;-84
2023/01/03 02:58:25;;;;;;;1.20;0.70;;;;;;;8.16;94.82;153455.91;4991719;28;20441;-84
2023/01/03 03:01:12;;;;;;;1.20;0.87;;;;;;;8.13;95.67;153448.13;4997270;28;20436;-84
2023/01/03 03:03:58;;;;;;;1.00;0.60;;;;;;;8.11;95.79;153441.69;4992539;28;20453;-84
2023/01/03 03:06:50;;;;;;;1.30;0.80;;;;;;;8.10;95.78;153439.13;4993017;28;20520;-84
2023/01/03 03:13:11;;;;;;;1.20;0.87;;;;;;;8.08;96.94;153435.22;4975978;28;20778;-84
2023/01/03 03:15:53;;;;;;;1.07;0.83;;;;;;;8.08;97.73;153435.22;4977249;28;20443;-84
2023/01/03 03:18:44;;;;;;;1.30;0.63;;;;;;;8.05;98.73;153427.47;4978120;28;20433;-84
2023/01/03 03:24:51;;;;;;;2.23;0.70;;;;;;;8.03;97.20;153422.31;4992179;28;20436;-84
2023/01/03 03:30:43;;;;;;;2.13;0.87;;;;;;;8.02;98.37;153418.44;5002798;28;20452;-84
2023/01/03 03:33:30;;;;;;;1.20;0.70;;;;;;;8.04;96.90;153424.91;5004352;28;20552;-83
2023/01/03 03:36:18;;;;;;;1.50;0.90;;;;;;;8.04;96.74;153424.91;4976041;28;20571;-84
2023/01/03 03:39:04;;;;;;;1.13;0.70;;;;;;;8.02;97.77;153419.75;4995279;28;20600;-84
2023/01/03 03:45:00;;;;;;;1.20;1.00;;;;;;;7.97;98.79;153408.09;4993581;28;20462;-84
2023/01/03 03:47:49;;;;;;;2.17;0.80;;;;;;;7.95;98.97;153402.94;4994642;28;20464;-84
2023/01/03 03:50:39;;;;;;;1.20;1.00;;;;;;;7.96;100.00;153404.22;4998278;28;20922;-84
2023/01/03 03:53:27;;;;;;;1.10;0.93;;;;;;;7.93;99.58;153396.47;4990887;28;20817;-84
2023/01/03 03:56:16;;;;;;;1.60;1.13;;;;;;;7.95;100.00;153401.63;5006493;28;20552;-84
2023/01/03 03:59:06;;;;;;;1.27;0.70;;;;;;;7.89;99.99;153386.13;5002459;28;20468;-84
2023/01/03 04:01:53;;;;;;;1.80;1.00;;;;;;;7.84;100.00;153373.19;5011748;28;20449;-84
2023/01/03 04:04:43;;;;;;;1.37;1.27;;;;;;;7.81;100.00;153365.50;4996611;28;20441;-84
2023/01/03 04:07:28;;;;;;;1.47;1.00;;;;;;;7.80;100.00;153362.88;5000522;28;20472;-84
2023/01/03 04:10:18;;;;;;;1.30;1.00;;;;;;;7.74;99.92;153347.38;5007029;28;20416;-84
2023/01/03 04:13:05;;;;;;;2.60;1.10;;;;;;;7.67;100.00;153329.31;4981103;28;20900;-84
2023/01/03 04:15:51;;;;;;;1.63;1.20;;;;;;;7.61;98.94;153313.78;4999996;28;20961;-84
2023/01/03 04:18:37;;;;;;;3.20;1.10;;;;;;;7.60;100.00;153311.25;5002591;28;20500;-84
2023/01/03 04:21:22;;;;;;;2.73;1.50;;;;;;;7.58;100.00;153307.34;4999689;28;20450;-85
2023/01/03 04:24:08;;;;;;;1.90;1.37;;;;;;;7.54;100.00;153295.72;4992727;28;20793;-84
2023/01/03 04:26:53;;;;;;;1.93;1.27;;;;;;;7.59;100.00;153309.94;5003204;28;20540;-84
2023/01/03 04:29:39;;;;;;;1.50;1.30;;;;;;;7.55;100.00;153298.28;4994410;28;20900;-84
2023/01/03 04:32:25;;;;;;;1.70;1.53;;;;;;;7.54;100.00;153297.03;5006469;28;20424;-84
2023/01/03 04:35:11;;;;;;;1.57;1.27;;;;;;;7.52;100.00;153290.56;5000192;28;20472;-84
2023/01/03 04:37:56;;;;;;;1.87;1.40;;;;;;;7.51;100.00;153287.97;5011686;28;20455;-84
2023/01/03 04:40:41;;;;;;;2.33;1.60;;;;;;;7.48;100.00;153280.22;5004095;28;20948;-84
2023/01/03 04:46:32;;;;;;;2.33;1.40;;;;;;;7.40;100.00;153260.84;5000266;28;20429;-84
2023/01/03 04:49:19;;;;;;;3.00;1.50;;;;;;;7.35;100.00;153249.25;4986421;28;20450;-84
2023/01/03 04:52:04;;;;;;;2.73;2.17;;;;;;;7.34;100.00;153246.63;4992071;28;20797;-84
2023/01/03 04:54:49;;;;;;;1.80;1.40;;;;;;;7.39;100.00;153257.00;4994524;28;20465;-84
2023/01/03 04:57:36;;;;;;;1.67;1.50;;;;;;;7.39;100.00;153258.25;4991129;28;20420;-84
2023/01/03 05:00:21;;;;;;;3.20;1.77;;;;;;;7.41;100.00;153262.16;4978451;28;20441;-84
2023/01/03 05:03:06;;;;;;;2.43;2.10;;;;;;;7.39;100.00;153257.00;4991011;28;20448;-84
2023/01/03 05:05:53;;;;;;;1.73;1.10;;;;;;;7.41;100.00;153263.44;4990743;28;20449;-84
2023/01/03 05:08:38;;;;;;;1.63;1.40;;;;;;;7.41;100.00;153263.44;4992167;28;20472;-84
2023/01/03 05:11:24;;;;;;;2.80;1.40;;;;;;;7.41;100.00;153262.16;4992420;28;20435;-84
2023/01/03 05:14:10;;;;;;;1.67;1.40;;;;;;;7.36;100.00;153251.78;5004953;28;20708;-84
2023/01/03 05:16:55;;;;;;;1.80;1.37;;;;;;;7.36;100.00;153251.78;5004055;28;20440;-84
2023/01/03 05:25:52;;;;;;;2.37;1.77;;;;;;;7.36;100.00;153251.78;4989026;28;20454;-85
2023/01/03 05:28:38;;;;;;;2.40;1.53;;;;;;;7.35;100.00;153249.25;4986441;28;20629;-84
2023/01/03 05:31:24;;;;;;;2.60;1.50;;;;;;;7.33;100.00;153244.03;4992211;28;20988;-84
2023/01/03 05:34:09;;;;;;;1.73;1.40;;;;;;;7.28;100.00;153231.13;4992164;28;20476;-84
2023/01/03 05:36:55;;;;;;;2.87;1.80;;;;;;;7.20;100.00;153209.22;4982722;28;20429;-84
2023/01/03 05:39:41;;;;;;;1.90;1.60;;;;;;;7.17;100.00;153202.75;4992857;28;20440;-84
2023/01/03 05:42:27;;;;;;;2.20;1.33;;;;;;;7.14;100.00;153195.00;4991354;28;20503;-84
2023/01/03 05:45:12;;;;;;;2.03;1.63;;;;;;;7.09;100.00;153182.09;4991368;28;20512;-84
2023/01/03 05:47:58;;;;;;;2.43;1.70;;;;;;;7.06;100.00;153174.34;4987534;28;20472;-84
2023/01/03 05:50:43;;;;;;;2.50;1.70;;;;;;;7.02;100.00;153164.00;5004988;28;20433;-84
2023/01/03 05:53:29;;;;;;;2.77;1.53;;;;;;;6.97;100.00;153151.09;4991855;28;20445;-84
2023/01/03 05:56:16;;;;;;;2.37;1.73;;;;;;;6.94;100.00;153143.34;4989139;28;20782;-85
2023/01/03 05:59:01;;;;;;;2.43;1.63;;;;;;;6.92;100.00;153136.88;4990389;28;20445;-84
2023/01/03 06:01:46;;;;;;;2.93;1.90;;;;;;;6.89;100.00;153130.44;4988435;28;20449;-84
2023/01/03 06:04:32;;;;;;;2.17;1.60;;;;;;;6.84;100.00;153117.53;4983970;28;20589;-84
2023/01/03 06:07:17;;;;;;;4.47;1.90;;;;;;;6.80;100.00;153105.91;4980027;28;20466;-84
2023/01/03 06:10:03;;;;;;;3.13;1.73;;;;;;;6.78;100.00;153100.78;4981792;28;20441;-84
2023/01/03 06:12:50;;;;;;;2.43;1.80;;;;;;;6.77;100.00;153099.47;4989165;28;20514;-84
2023/01/03 06:15:35;;;;;;;3.17;2.03;;;;;;;6.73;100.00;153089.13;4989785;28;20442;-84
2023/01/03 06:18:20;;;;;;;2.20;1.63;;;;;;;6.71;100.00;153083.97;4991210;28;20499;-84
2023/01/03 06:21:06;;;;;;;2.70;2.10;;;;;;;6.69;100.00;153078.81;4987684;28;20446;-84
2023/01/03 06:23:51;;;;;;;2.47;2.00;;;;;;;6.67;100.00;153074.91;4991655;28;20445;-84
2023/01/03 06:26:36;;;;;;;3.30;2.73;;;;;;;6.65;100.00;153068.47;4986264;28;20465;-84
2023/01/03 06:29:23;;;;;;;2.67;2.13;;;;;;;6.63;100.00;153063.31;4983999;28;20548;-84
2023/01/03 06:32:08;;;;;;;2.80;2.13;;;;;;;6.62;100.00;153060.72;4984164;28;20798;-84
2023/01/03 06:34:54;;;;;;;2.17;1.70;;;;;;;6.61;100.00;153059.47;4983401;28;20480;-84
2023/01/03 06:37:39;;;;;;;1.60;1.50;;;;;;;6.61;100.00;153058.16;4983088;28;20952;-84
2023/01/03 06:40:26;;;;;;;4.10;1.97;;;;;;;6.58;100.00;153051.72;4995861;28;20490;-84
2023/01/03 06:43:11;;;;;;;2.93;2.17;;;;;;;6.55;100.00;153042.66;4983940;28;20452;-84
2023/01/03 06:55:14;;;;;;;4.23;1.70;;;;;;;6.42;100.00;153009.13;4980787;28;20449;-84
2023/01/03 06:58:00;;;;;;;2.40;2.20;;;;;;;6.41;100.00;153006.53;4982642;28;20452;-84
2023/01/03 07:00:46;;;;;;;2.43;2.10;;;;;;;6.40;100.00;153003.97;4985417;28;20574;-84
2023/01/03 07:03:33;;;;;;;2.37;1.93;;;;;;;6.36;100.00;152993.63;4986754;28;20529;-84
2023/01/03 07:06:18;;;;;;;2.67;2.23;;;;;;;6.35;100.00;152991.06;4989240;28;20445;-84
2023/01/03 07:09:04;;;;;;;2.57;2.20;;;;;;;6.33;100.00;152985.91;4985832;28;20490;-84
2023/01/03 07:11:49;;;;;;;2.37;2.17;;;;;;;6.30;100.00;152978.16;4982738;28;20446;-84
2023/01/03 07:14:33;;;;;;;2.87;2.57;;;;;;;6.25;100.00;152966.53;4984809;28;20456;-84
2023/01/03 07:17:19;;;;;;;3.13;2.20;;;;;;;6.24;100.00;152963.97;4983799;28;20472;-85
2023/01/03 07:20:08;;;;;;;3.27;2.40;;;;;;;6.21;100.00;152954.94;4987543;28;20437;-84
2023/01/03 07:22:53;;;;;;;2.73;2.50;;;;;;;6.12;100.00;152932.97;4984659;28;20456;-84
2023/01/03 07:25:40;;;;;;;3.20;2.10;;;;;;;6.16;100.00;152942.03;4985848;28;20813;-84
2023/01/03 07:28:25;;;;;;;3.30;2.70;;;;;;;6.16;100.00;152943.31;4987502;28;20477;-84
2023/01/03 07:31:11;;;;;;;2.83;2.53;;;;;;;6.08;100.00;152923.97;4981154;28;20444;-84
2023/01/03 07:33:57;;;;;;;2.40;2.20;;;;;;;6.11;100.00;152931.72;4984758;28;20502;-84
2023/01/03 07:36:43;;;;;;;2.30;1.97;;;;;;;6.11;100.00;152931.72;4987956;28;20445;-84
2023/01/03 07:39:29;;;;;;;2.80;2.17;;;;;;;6.12;100.00;152934.28;4985342;28;20465;-84
2023/01/03 07:45:17;;;;;;;2.23;1.83;;;;;;;6.16;100.00;152943.31;4989542;28;21074;-85
2023/01/03 07:48:03;;;;;;;2.60;1.87;;;;;;;6.14;100.00;152939.44;4988018;28;20563;-85
2023/01/03 07:50:48;;;;;;;2.60;2.00;;;;;;;6.14;100.00;152939.44;4986613;28;20959;-85
2023/01/03 07:53:36;;;;;;;2.30;1.97;;;;;;;6.16;100.00;152942.03;4985465;28;20520;-84
2023/01/03 07:56:23;;;;;;;2.93;2.63;;;;;;;6.21;100.00;152956.22;4985624;28;20509;-84
2023/01/03 07:59:09;;;;;;;3.03;2.50;;;;;;;6.29;100.00;152976.88;4986328;28;20533;-84
2023/01/03 08:01:54;;;;;;;4.43;3.17;;;;;;;6.36;100.00;152994.91;4994436;28;20461;-84
2023/01/03 08:04:40;;;;;;;3.40;3.10;;;;;;;6.42;100.00;153009.13;4981400;28;21089;-84
2023/01/03 08:07:26;;;;;;;5.37;4.00;;;;;;;6.46;100.00;153020.72;4985267;28;20469;-84
2023/01/03 08:13:18;;;;;;;4.13;3.23;;;;;;;6.64;100.00;153067.22;4982471;28;20538;-84
2023/01/03 08:16:04;;;;;;;4.33;3.30;;;;;;;6.75;100.00;153094.31;4981799;28;20956;-84
2023/01/03 08:18:50;;;;;;;4.53;3.27;;;;;;;6.82;100.00;153112.38;4983586;28;20453;-84
2023/01/03 08:21:36;;;;;;;3.57;3.27;;;;;;;6.88;100.00;153127.88;4985637;28;20453;-83
2023/01/03 08:24:21;;;;;;;4.17;3.13;;;;;;;6.96;100.00;153148.53;4979586;28;20521;-83
2023/01/03 08:27:08;;;;;;;6.83;4.07;;;;;;;6.99;100.00;153156.25;4993226;28;20452;-84
2023/01/03 08:29:53;;;;;;;2.80;2.43;;;;;;;7.06;100.00;153174.34;4988435;28;20448;-84
2023/01/03 08:32:39;;;;;;;6.17;3.10;;;;;;;7.09;100.00;153182.09;4980585;28;20449;-84
2023/01/03 08:35:25;;;;;;;3.47;2.50;;;;;;;7.13;100.00;153191.09;4978369;28;20504;-84
2023/01/03 08:38:14;;;;;;;2.90;2.60;;;;;;;7.15;100.00;153197.56;4984496;28;20464;-84
2023/01/03 08:41:00;;;;;;;9.20;3.50;;;;;;;7.20;100.00;153210.47;4983228;28;21175;-84
2023/01/03 08:43:47;;;;;;;3.50;2.47;;;;;;;7.22;100.00;153215.66;4979877;28;20460;-84
2023/01/03 08:46:33;;;;;;;4.40;2.63;;;;;;;7.25;100.00;153222.13;4982982;28;20508;-84
2023/01/03 08:49:19;;;;;;;3.90;3.03;;;;;;;7.28;100.00;153231.13;4996619;28;20864;-84
2023/01/03 08:52:05;;;;;;;4.20;2.80;;;;;;;7.33;100.00;153244.03;4980409;28;20829;-84
2023/01/03 08:54:50;;;;;;;3.57;2.73;;;;;;;7.36;100.00;153251.78;4983822;28;20453;-84
2023/01/03 08:57:35;;;;;;;3.00;2.70;;;;;;;7.41;100.00;153263.44;4983244;28;20506;-83
2023/01/03 09:00:22;;;;;;;2.63;2.43;;;;;;;7.43;100.00;153268.59;4983042;28;20489;-83
2023/01/03 09:03:08;;;;;;;3.40;3.00;;;;;;;7.44;100.00;153271.16;4981936;28;20446;-83
2023/01/03 09:05:53;;;;;;;5.17;3.20;;;;;;;7.46;100.00;153276.34;4981506;28;20529;-83
2023/01/03 09:08:39;;;;;;;6.10;4.07;;;;;;;7.49;100.00;153282.81;4981949;28;20476;-83
2023/01/03 09:11:24;;;;;;;7.03;3.27;;;;;;;7.50;100.00;153286.66;4980477;28;20561;-83
2023/01/03 09:14:10;;;;;;;4.37;3.10;;;;;;;7.53;100.00;153294.44;4988354;28;20457;-83
2023/01/03 09:16:56;;;;;;;3.30;3.00;;;;;;;7.61;100.00;153313.78;4997653;28;20966;-84
2023/01/03 09:19:42;;;;;;;3.00;2.70;;;;;;;7.65;100.00;153324.16;4982225;28;20473;-83
2023/01/03 09:22:27;;;;;;;3.70;3.03;;;;;;;7.69;100.00;153334.47;4982753;28;20861;-84
2023/01/03 09:25:13;;;;;;;3.10;2.80;;;;;;;7.71;100.00;153340.91;4980995;28;20462;-84
2023/01/03 09:27:58;;;;;;;3.33;2.80;;;;;;;7.73;100.00;153346.06;4984417;28;20519;-84
2023/01/03 09:30:44;;;;;;;4.03;3.37;;;;;;;7.74;100.00;153348.69;4995346;28;21066;-84
2023/01/03 09:33:30;;;;;;;4.87;2.87;;;;;;;7.79;100.00;153361.59;4984626;28;20948;-83
2023/01/03 09:36:16;;;;;;;3.13;2.70;;;;;;;7.84;100.00;153373.19;4981634;28;20499;-83
2023/01/03 09:39:01;;;;;;;2.73;2.53;;;;;;;7.88;100.00;153383.56;4982603;28;20510;-84
2023/01/03 09:43:11;;;;;;;3.40;2.17;;;;;;;7.87;100.00;153380.97;4980261;28;20438;-85
2023/01/03 09:44:53;;;;;;;2.30;1.90;;;;;;;7.90;100.00;153390.03;4988516;28;20442;-85
2023/01/03 09:47:39;;;;;;;2.60;2.20;;;;;;;7.98;100.00;153409.41;4986547;28;20569;-84
2023/01/03 09:50:28;;;;;;;2.30;2.10;;;;;;;7.98;100.00;153409.41;4999663;28;20518;-84
2023/01/03 10:06:08;;;;;;;2.90;2.60;;;;;;;8.20;99.65;153464.97;4981203;28;21976;-85
2023/01/03 10:09:02;;;;;;;2.73;2.30;;;;;;;8.21;99.77;153468.81;4976370;28;20477;-85
2023/01/03 10:11:55;;;;;;;2.30;2.00;;;;;;;8.24;100.00;153475.28;4981745;28;21057;-85
2023/01/03 10:14:50;;;;;;;4.07;2.30;;;;;;;8.27;98.69;153484.41;4979462;28;22572;-84
2023/01/03 10:17:38;;;;;;;2.77;2.47;;;;;;;8.28;98.03;153485.69;4980889;28;20925;-85
2023/01/03 10:20:36;;;;;;;2.23;2.03;;;;;;;8.32;99.07;153497.31;4979031;28;21232;-85
2023/01/03 10:23:23;;;;;;;3.10;2.10;;;;;;;8.31;97.87;153494.72;4982582;28;20458;-85
2023/01/03 10:26:10;;;;;;;3.77;1.83;;;;;;;8.36;98.44;153506.38;4980891;28;20457;-85
2023/01/03 10:28:55;;;;;;;3.13;2.03;;;;;;;8.37;97.93;153510.22;4982188;28;20475;-85
2023/01/03 10:31:56;;;;;;;2.30;2.10;;;;;;;8.38;97.75;153511.53;4981913;28;20454;-85
2023/01/03 10:34:41;;;;;;;2.40;2.20;;;;;;;8.36;97.59;153507.69;4978951;28;20624;-84
2023/01/03 10:37:27;;;;;;;2.67;2.30;;;;;;;8.33;96.89;153498.63;4980709;28;20439;-85
2023/01/03 10:40:14;;;;;;;2.80;2.27;;;;;;;8.34;97.26;153502.47;4980825;28;20433;-85
2023/01/03 10:43:07;;;;;;;3.53;2.73;;;;;;;8.33;98.31;153499.91;4983085;28;20448;-85
2023/01/03 10:45:55;;;;;;;4.40;2.57;;;;;;;8.30;98.13;153492.16;4992296;28;20463;-86
2023/01/03 10:48:41;;;;;;;2.70;2.30;;;;;;;8.27;97.60;153484.41;4989303;28;20483;-85
2023/01/03 10:51:30;;;;;;;3.30;2.37;;;;;;;8.27;97.54;153483.09;4982946;28;20452;-85
2023/01/03 10:54:25;;;;;;;3.20;2.90;;;;;;;8.28;97.72;153487.00;4983877;28;20817;-84
2023/01/03 10:57:34;;;;;;;4.30;3.60;;;;;;;8.27;98.37;153484.41;4982129;28;20911;-85
2023/01/03 11:00:26;;;;;;;3.80;3.10;;;;;;;8.22;97.35;153470.13;4982985;28;20460;-85
2023/01/03 11:03:16;;;;;;;3.43;3.13;;;;;;;8.24;98.38;153476.59;4986522;28;20476;-85
2023/01/03 11:06:09;;;;;;;3.60;2.90;;;;;;;8.27;97.48;153483.09;4986153;28;20438;-84
2023/01/03 11:09:00;;;;;;;3.23;2.93;;;;;;;8.24;96.95;153476.59;4985291;28;20561;-84
2023/01/03 11:11:53;;;;;;;2.97;2.60;;;;;;;8.31;97.02;153494.72;4985966;28;20504;-85
2023/01/03 11:14:49;;;;;;;3.43;2.93;;;;;;;8.29;97.38;153489.56;4985442;28;20479;-84
2023/01/03 11:17:35;;;;;;;3.13;2.60;;;;;;;8.30;96.61;153490.84;4992850;28;20620;-84
2023/01/03 11:20:20;;;;;;;3.17;2.40;;;;;;;8.30;96.38;153490.84;4988351;28;21045;-85
2023/01/03 11:23:12;;;;;;;3.60;3.00;;;;;;;8.31;96.13;153493.47;4989674;28;20461;-85
2023/01/03 11:26:04;;;;;;;3.40;2.70;;;;;;;8.36;96.21;153506.38;4988709;28;20573;-85
2023/01/03 11:29:02;;;;;;;3.73;3.30;;;;;;;8.35;97.70;153505.06;4993428;28;20481;-85
2023/01/03 11:31:54;;;;;;;3.57;3.27;;;;;;;8.40;96.33;153518.00;4992464;28;20516;-85
2023/01/03 11:35:08;;;;;;;3.83;2.93;;;;;;;8.37;96.62;153510.22;4993244;28;20477;-85
2023/01/03 11:38:02;;;;;;;3.80;2.30;;;;;;;8.33;95.45;153499.91;4986798;28;20457;-85
2023/01/03 11:40:53;;;;;;;2.33;2.00;;;;;;;8.34;95.97;153501.22;4986056;28;20439;-85
2023/01/03 11:43:50;;;;;;;2.83;2.60;;;;;;;8.36;96.24;153506.38;4985534;28;20481;-85
2023/01/03 11:46:48;;;;;;;5.30;2.37;;;;;;;8.34;96.46;153501.22;4986954;28;20439;-85
2023/01/03 11:49:46;;;;;;;3.17;2.57;;;;;;;8.36;95.59;153506.38;4985920;28;20540;-84
2023/01/03 11:52:39;;;;;;;3.40;2.50;;;;;;;8.38;94.24;153511.53;4987295;28;20433;-85
2023/01/03 11:55:40;;;;;;;3.13;2.70;;;;;;;8.57;93.35;153561.97;4984408;28;20955;-84
2023/01/03 11:58:45;;;;;;;2.97;2.67;;;;;;;8.54;93.40;153554.19;4983084;28;20470;-85
2023/01/03 12:01:54;;;;;;;2.90;2.50;;;;;;;8.57;93.42;153560.66;4980773;28;20438;-84
2023/01/03 12:04:52;;;;;;;4.53;2.77;;;;;;;8.64;93.06;153578.75;4985753;28;20849;-85
2023/01/03 12:07:49;;;;;;;3.40;2.87;;;;;;;8.65;93.40;153580.03;4983246;28;20804;-84
2023/01/03 12:10:42;;;;;;;4.23;2.50;;;;;;;8.58;95.04;153564.53;4982915;28;20968;-84
2023/01/03 12:13:31;;;;;;;1.90;1.70;;;;;;;8.52;93.41;153549.00;4987287;28;20556;-84
2023/01/03 12:16:23;;;;;;;3.30;2.63;;;;;;;8.54;92.52;153552.91;4988419;28;20537;-85
2023/01/03 12:19:19;;;;;;;2.97;2.40;;;;;;;8.58;92.47;153564.53;4985202;28;20458;-84
2023/01/03 12:22:13;;;;;;;6.33;2.70;;;;;;;8.63;91.90;153576.13;4982065;28;20459;-84
2023/01/03 12:25:02;;;;;;;3.10;1.70;;;;;;;8.67;91.11;153585.22;4995296;28;20575;-84
2023/01/03 12:27:51;;;;;;;2.23;1.50;;;;;;;8.68;90.39;153587.81;4983529;28;20461;-84
2023/01/03 12:30:40;;;;;;;1.80;1.23;;;;;;;8.68;90.91;153587.81;4982105;28;20471;-84
2023/01/03 12:33:30;;;;;;;1.77;1.10;;;;;;;8.70;89.97;153594.28;4984568;28;20991;-85
2023/01/03 12:36:28;;;;;;;1.00;0.73;;;;;;;8.87;87.72;153636.94;4990172;28;20472;-84
2023/01/03 12:39:31;;;;;;;2.13;0.97;;;;;;;8.87;86.91;153636.94;4992929;28;21064;-85
2023/01/03 12:42:26;;;;;;;2.33;1.13;;;;;;;8.84;87.54;153629.19;4987517;28;20517;-85
2023/01/03 12:45:32;;;;;;;1.40;1.17;;;;;;;8.80;87.78;153618.81;4982828;28;20435;-84
2023/01/03 12:48:33;;;;;;;1.37;0.97;;;;;;;8.91;85.38;153648.56;4984549;28;20918;-84
2023/01/03 12:51:23;;;;;;;1.43;1.03;;;;;;;9.03;85.55;153679.59;4986725;28;20456;-84
2023/01/03 12:54:36;;;;;;;5.23;2.07;;;;;;;9.09;84.13;153693.81;4984438;28;20458;-85
2023/01/03 12:57:56;;;;;;;3.80;2.40;;;;;;;8.98;85.71;153665.34;4983504;28;20472;-84
2023/01/03 13:00:55;;;;;;;1.67;1.10;;;;;;;8.96;85.15;153660.19;4971215;28;20470;-84
2023/01/03 13:03:44;;;;;;;1.50;1.00;;;;;;;8.94;84.45;153655.03;4980669;28;20872;-84
2023/01/03 13:06:31;;;;;;;1.97;0.80;;;;;;;8.97;85.04;153662.81;4984225;28;20454;-84
2023/01/03 13:09:21;;;;;;;1.10;0.90;;;;;;;8.94;86.46;153656.34;4982803;28;20501;-84
2023/01/03 13:12:08;;;;;;;1.80;0.93;;;;;;;8.93;87.45;153653.72;4978489;28;20433;-84
2023/01/03 13:14:55;;;;;;;1.67;1.20;;;;;;;8.88;87.67;153639.50;4981962;28;20449;-84
2023/01/03 13:17:45;;;;;;;2.50;0.90;;;;;;;8.88;84.91;153640.81;4984522;28;20559;-85
2023/01/03 13:20:36;;;;;;;1.50;1.13;;;;;;;8.90;85.66;153645.97;4985432;28;20450;-83
2023/01/03 13:23:54;;;;;;;1.63;0.77;;;;;;;8.90;86.59;153645.97;4986049;28;20449;-85
2023/01/03 13:27:19;;;;;;;1.40;1.13;;;;;;;8.84;86.61;153629.19;4983179;28;20530;-84
2023/01/03 13:30:21;;;;;;;1.30;0.93;;;;;;;8.83;85.92;153626.59;4994227;28;20548;-83
2023/01/03 13:33:17;;;;;;;1.40;1.10;;;;;;;8.85;84.58;153631.75;4985037;28;20503;-83
2023/01/03 13:36:02;;;;;;;4.90;1.50;;;;;;;8.85;85.04;153633.03;4982991;28;20924;-84
2023/01/03 13:38:47;;;;;;;2.20;1.23;;;;;;;8.83;86.83;153627.88;4995126;28;20577;-83
2023/01/03 13:41:36;;;;;;;1.70;1.50;;;;;;;8.86;85.09;153634.34;4983113;28;20477;-83
2023/01/03 13:44:24;;;;;;;2.30;1.47;;;;;;;8.86;85.47;153634.34;4996988;28;20461;-85
2023/01/03 13:47:24;;;;;;;1.87;1.30;;;;;;;8.81;84.98;153621.41;4982457;28;20484;-83
2023/01/03 13:50:18;;;;;;;1.60;1.00;;;;;;;8.78;84.67;153614.97;4982358;28;20493;-84
2023/01/03 13:53:06;;;;;;;2.03;0.90;;;;;;;8.80;84.38;153620.13;4987660;28;20583;-83
2023/01/03 13:55:58;;;;;;;1.40;0.80;;;;;;;8.81;84.01;153621.41;4981687;28;20445;-84
2023/01/03 13:58:45;;;;;;;1.83;0.73;;;;;;;8.83;84.90;153626.59;4984588;28;20958;-84
2023/01/03 14:01:50;;;;;;;1.00;0.77;;;;;;;8.83;84.83;153627.88;4992893;28;20449;-84
2023/01/03 14:04:59;;;;;;;1.00;0.70;;;;;;;8.86;86.59;153634.34;4984293;28;20465;-83
2023/01/03 14:08:08;;;;;;;1.50;0.70;;;;;;;8.86;86.38;153634.34;4980881;28;22035;-84